Time;durP1;ratioP1;P1;durP2;ratioP2;P2;SDS_P1;SDS_P2;PMS_P1;PMS_P2;Temp;Humidity;BMP_temperature;BMP_pressure;BME280_temperature;BME280_humidity;BME280_pressure;Samples;Min_cycle;Max_cycle;Signal;HPM_P1;HPM_P2
2023/09/27 04:05:18;;;;;;;0.30;0.30;;;11.10;99.90;;;;;;6110633;22;20195;-59
2023/09/27 04:07:43;;;;;;;0.30;0.20;;;11.10;99.90;;;;;;5076280;28;20281;-59
2023/09/27 04:10:09;;;;;;;0.30;0.30;;;11.10;99.90;;;;;;5076859;28;20264;-59
2023/09/27 04:12:36;;;;;;;0.30;0.30;;;11.10;99.90;;;;;;5076872;28;20208;-59
2023/09/27 04:15:02;;;;;;;0.30;0.30;;;11.10;99.90;;;;;;5076588;28;20181;-60
2023/09/27 04:17:28;;;;;;;0.77;0.77;;;11.10;99.90;;;;;;5076640;28;20257;-59
2023/09/27 04:19:55;;;;;;;0.40;0.40;;;11.10;99.90;;;;;;5076960;28;20169;-59
2023/09/27 04:22:21;;;;;;;0.30;0.30;;;11.10;99.90;;;;;;5076678;28;20653;-59
2023/09/27 04:24:46;;;;;;;0.30;0.30;;;11.10;99.90;;;;;;5076431;28;20169;-59
2023/09/27 04:27:12;;;;;;;0.37;0.37;;;11.00;99.90;;;;;;5076654;28;20189;-59
2023/09/27 04:29:38;;;;;;;0.30;0.30;;;11.00;99.90;;;;;;5076468;28;20180;-59
2023/09/27 04:32:04;;;;;;;0.30;0.30;;;11.00;99.90;;;;;;5076762;28;20172;-59
2023/09/27 04:34:30;;;;;;;0.77;0.77;;;11.00;99.90;;;;;;5075627;28;20165;-59
2023/09/27 04:36:56;;;;;;;0.30;0.30;;;11.00;99.90;;;;;;5075567;28;20523;-60
2023/09/27 04:39:21;;;;;;;0.50;0.50;;;11.00;99.90;;;;;;5058556;28;20242;-59
2023/09/27 04:41:47;;;;;;;0.30;0.30;;;11.00;99.90;;;;;;5076373;28;20248;-59
2023/09/27 04:44:15;;;;;;;0.30;0.30;;;10.90;99.90;;;;;;5076055;28;20310;-59
2023/09/27 04:46:41;;;;;;;0.30;0.30;;;10.90;99.90;;;;;;5076273;28;20193;-59
2023/09/27 04:49:07;;;;;;;0.30;0.30;;;10.90;99.90;;;;;;5076229;28;20172;-59
2023/09/27 04:51:33;;;;;;;0.30;0.30;;;10.80;99.90;;;;;;5076144;28;20172;-60
2023/09/27 04:54:02;;;;;;;0.30;0.30;;;10.80;99.90;;;;;;5076074;28;20235;-58
2023/09/27 04:56:28;;;;;;;0.30;0.30;;;10.90;99.90;;;;;;5076429;28;20488;-59
2023/09/27 04:58:54;;;;;;;0.40;0.40;;;10.90;99.90;;;;;;5058540;28;20186;-59
2023/09/27 05:01:20;;;;;;;0.30;0.30;;;10.90;99.90;;;;;;5076093;28;20547;-59
2023/09/27 05:03:45;;;;;;;0.43;0.43;;;10.90;99.90;;;;;;5075095;28;20181;-60
2023/09/27 05:06:11;;;;;;;0.30;0.30;;;10.90;99.90;;;;;;5076259;28;20438;-59
2023/09/27 05:08:36;;;;;;;0.30;0.30;;;10.90;99.90;;;;;;5075801;28;20181;-59
2023/09/27 05:11:02;;;;;;;0.30;0.30;;;10.90;99.90;;;;;;5075837;28;20230;-59
2023/09/27 05:13:27;;;;;;;0.30;0.30;;;10.90;99.90;;;;;;5075918;28;20207;-60
2023/09/27 05:15:53;;;;;;;0.30;0.30;;;10.90;99.90;;;;;;5075403;28;20204;-59
2023/09/27 05:18:22;;;;;;;0.30;0.30;;;10.90;99.90;;;;;;5075643;28;20180;-58
2023/09/27 05:20:48;;;;;;;0.30;0.30;;;10.90;99.90;;;;;;5075598;28;20462;-60
2023/09/27 05:23:13;;;;;;;0.30;0.30;;;10.90;99.90;;;;;;5075640;28;20180;-59
2023/09/27 05:25:39;;;;;;;0.30;0.30;;;10.90;99.90;;;;;;5075329;28;20214;-59
2023/09/27 05:28:05;;;;;;;0.30;0.30;;;10.90;99.90;;;;;;5057692;28;20748;-59
2023/09/27 05:30:31;;;;;;;0.30;0.30;;;10.90;99.90;;;;;;5075510;28;20249;-60
2023/09/27 05:32:57;;;;;;;0.30;0.30;;;10.90;99.90;;;;;;5075260;28;20408;-59
2023/09/27 05:35:23;;;;;;;0.30;0.30;;;11.00;99.90;;;;;;5075134;28;20200;-60
2023/09/27 05:37:49;;;;;;;0.30;0.30;;;11.00;99.90;;;;;;5075533;28;20420;-59
2023/09/27 05:40:15;;;;;;;0.50;0.50;;;11.00;99.90;;;;;;5075284;28;20567;-60
2023/09/27 05:42:40;;;;;;;0.30;0.30;;;11.00;99.90;;;;;;5075719;28;20399;-60
2023/09/27 05:45:11;;;;;;;0.40;0.40;;;11.10;99.90;;;;;;5074814;28;20179;-60
2023/09/27 05:47:37;;;;;;;0.35;0.35;;;11.10;99.90;;;;;;5075407;28;20162;-60
2023/09/27 05:50:08;;;;;;;0.30;0.30;;;11.20;99.90;;;;;;5075338;28;20541;-60
2023/09/27 05:52:34;;;;;;;0.40;0.40;;;11.20;99.90;;;;;;5075273;28;20176;-60
2023/09/27 05:55:00;;;;;;;0.30;0.30;;;11.20;99.90;;;;;;5074793;28;20189;-60
2023/09/27 05:57:26;;;;;;;0.40;0.40;;;11.30;99.90;;;;;;5075119;28;20206;-60
2023/09/27 05:59:52;;;;;;;0.30;0.30;;;11.30;99.90;;;;;;5074981;28;20223;-60
2023/09/27 06:02:17;;;;;;;0.30;0.30;;;11.40;99.90;;;;;;5074934;28;20246;-60
2023/09/27 06:04:46;;;;;;;0.37;0.37;;;11.50;99.90;;;;;;5074396;28;20161;-61
2023/09/27 06:07:17;;;;;;;0.32;0.32;;;11.50;99.90;;;;;;5074574;28;20212;-60
2023/09/27 06:09:44;;;;;;;0.40;0.40;;;11.70;99.90;;;;;;5074816;28;20261;-60
2023/09/27 06:12:12;;;;;;;0.50;0.50;;;11.80;99.90;;;;;;5074752;28;20422;-60
2023/09/27 06:14:38;;;;;;;0.30;0.30;;;11.90;99.90;;;;;;5055534;28;20414;-60
2023/09/27 06:17:05;;;;;;;1.93;1.83;;;11.90;99.90;;;;;;5074612;28;20491;-60
2023/09/27 06:19:31;;;;;;;0.40;0.40;;;12.00;99.90;;;;;;5074680;28;20664;-59
2023/09/27 06:22:00;;;;;;;0.30;0.30;;;12.10;99.90;;;;;;5074526;28;20621;-59
2023/09/27 06:24:26;;;;;;;0.40;0.40;;;12.30;99.90;;;;;;5074021;28;20409;-59
2023/09/27 06:26:52;;;;;;;0.40;0.40;;;12.40;99.90;;;;;;5074315;28;20431;-58
2023/09/27 06:29:19;;;;;;;0.30;0.30;;;12.60;99.90;;;;;;5074442;28;20425;-58
2023/09/27 06:31:47;;;;;;;0.30;0.30;;;12.70;99.90;;;;;;5074306;28;20459;-59
2023/09/27 06:34:14;;;;;;;0.50;0.50;;;12.70;99.90;;;;;;5074010;28;20585;-59
2023/09/27 06:36:42;;;;;;;0.30;0.30;;;12.80;99.90;;;;;;5074128;28;20490;-59
2023/09/27 06:39:14;;;;;;;0.30;0.30;;;12.90;99.90;;;;;;5074330;28;20410;-59
2023/09/27 06:41:41;;;;;;;0.30;0.30;;;13.00;99.90;;;;;;5073934;28;20461;-59
2023/09/27 06:44:07;;;;;;;0.30;0.20;;;13.00;99.90;;;;;;5073578;28;20406;-59
2023/09/27 06:46:33;;;;;;;0.30;0.20;;;13.10;99.90;;;;;;5074121;28;20514;-60
2023/09/27 06:48:59;;;;;;;0.30;0.30;;;13.30;99.90;;;;;;5074187;28;20412;-60
2023/09/27 06:51:25;;;;;;;0.50;0.47;;;13.50;99.90;;;;;;5074092;28;20912;-59
2023/09/27 06:53:51;;;;;;;0.30;0.30;;;13.70;99.90;;;;;;5073724;28;20187;-59
2023/09/27 06:56:16;;;;;;;0.30;0.30;;;14.00;99.90;;;;;;5073971;28;20645;-60
2023/09/27 06:58:42;;;;;;;0.30;0.30;;;14.30;99.90;;;;;;5073805;28;20301;-60
2023/09/27 07:01:07;;;;;;;0.60;0.53;;;14.80;99.90;;;;;;5073792;28;20193;-59
2023/09/27 07:03:36;;;;;;;0.30;0.30;;;15.30;99.90;;;;;;5073930;28;20198;-60
2023/09/27 07:06:02;;;;;;;0.40;0.40;;;16.00;99.90;;;;;;5073308;28;20461;-60
2023/09/27 07:08:28;;;;;;;0.30;0.30;;;16.80;99.90;;;;;;5073562;28;20427;-60
2023/09/27 07:11:02;;;;;;;0.30;0.30;;;17.70;99.90;;;;;;5073668;28;20386;-60
2023/09/27 07:13:27;;;;;;;0.70;0.70;;;18.40;99.90;;;;;;5073766;28;20407;-59
2023/09/27 07:15:54;;;;;;;0.37;0.37;;;18.90;99.90;;;;;;5072830;28;20818;-60
2023/09/27 07:18:20;;;;;;;0.30;0.20;;;19.00;99.90;;;;;;5073429;28;20199;-60
2023/09/27 07:20:46;;;;;;;0.30;0.30;;;19.00;99.90;;;;;;5073568;28;20466;-59
2023/09/27 07:23:15;;;;;;;0.40;0.33;;;18.90;99.90;;;;;;5073328;28;20527;-59
2023/09/27 07:25:42;;;;;;;0.40;0.40;;;18.70;99.90;;;;;;5072822;28;20412;-59
2023/09/27 07:28:07;;;;;;;0.97;0.97;;;18.40;99.90;;;;;;5073543;28;20392;-60
2023/09/27 07:30:34;;;;;;;0.77;0.77;;;18.40;99.90;;;;;;5073372;28;20889;-59
2023/09/27 07:33:03;;;;;;;0.30;0.20;;;18.30;99.90;;;;;;5073430;28;20184;-59
2023/09/27 07:35:33;;;;;;;0.30;0.30;;;18.30;99.90;;;;;;5072837;28;20402;-59
2023/09/27 07:37:58;;;;;;;0.30;0.20;;;18.60;99.90;;;;;;5073347;28;20404;-60
2023/09/27 07:40:24;;;;;;;0.33;0.33;;;19.10;99.90;;;;;;5073304;28;20948;-60
2023/09/27 07:42:51;;;;;;;0.30;0.30;;;19.90;99.90;;;;;;5073125;28;20192;-60
2023/09/27 07:45:23;;;;;;;0.30;0.30;;;20.70;99.90;;;;;;5072952;28;20172;-60
2023/09/27 07:47:52;;;;;;;1.17;1.17;;;21.50;99.90;;;;;;5073839;28;20411;-60
2023/09/27 07:50:28;;;;;;;0.33;0.33;;;22.40;99.90;;;;;;5073157;28;20826;-60
2023/09/27 07:52:57;;;;;;;0.70;0.70;;;23.20;99.90;;;;;;5073146;28;20468;-60
2023/09/27 07:55:23;;;;;;;1.33;1.23;;;24.20;99.90;;;;;;5072928;28;20482;-61
2023/09/27 07:57:52;;;;;;;0.60;0.40;;;24.90;98.60;;;;;;5073426;28;20877;-60
2023/09/27 08:00:19;;;;;;;0.47;0.47;;;25.60;97.40;;;;;;5073270;28;20192;-60
2023/09/27 08:02:46;;;;;;;0.50;0.50;;;26.20;95.20;;;;;;5073316;28;20418;-60
2023/09/27 08:05:14;;;;;;;0.60;0.60;;;26.70;95.00;;;;;;5072691;28;20461;-59
2023/09/27 08:07:40;;;;;;;0.70;0.60;;;27.20;93.10;;;;;;5072910;28;20427;-60
2023/09/27 08:10:06;;;;;;;0.77;0.77;;;27.50;92.80;;;;;;5073046;28;20933;-60
2023/09/27 08:12:34;;;;;;;0.57;0.40;;;28.10;91.40;;;;;;5073051;28;20468;-60
2023/09/27 08:15:03;;;;;;;0.57;0.57;;;28.70;90.30;;;;;;5072491;28;20419;-60
2023/09/27 08:17:29;;;;;;;0.40;0.40;;;29.20;89.80;;;;;;5072864;28;20415;-60
2023/09/27 08:19:54;;;;;;;0.50;0.50;;;29.30;88.10;;;;;;5072839;28;20425;-60
2023/09/27 08:22:20;;;;;;;0.70;0.50;;;29.50;88.50;;;;;;5072745;28;20161;-60
2023/09/27 08:24:46;;;;;;;0.70;0.70;;;29.90;87.70;;;;;;5072507;28;20650;-60
2023/09/27 08:27:12;;;;;;;0.90;0.90;;;30.40;84.80;;;;;;5072785;28;20193;-59
2023/09/27 08:29:37;;;;;;;0.80;0.57;;;30.70;84.10;;;;;;5072994;28;20176;-59
2023/09/27 08:32:06;;;;;;;0.50;0.50;;;30.90;83.40;;;;;;5072901;28;20179;-59
2023/09/27 08:34:32;;;;;;;0.40;0.40;;;30.80;82.40;;;;;;5072612;28;20193;-60
2023/09/27 08:36:58;;;;;;;0.40;0.40;;;30.70;82.40;;;;;;5072667;28;20980;-60
2023/09/27 08:39:24;;;;;;;0.43;0.43;;;31.00;83.20;;;;;;5076378;28;20442;-59
2023/09/27 08:41:50;;;;;;;0.90;0.90;;;31.20;81.10;;;;;;5076412;28;20674;-59
2023/09/27 08:44:16;;;;;;;0.60;0.60;;;31.60;80.10;;;;;;5076118;28;20184;-61
2023/09/27 08:46:44;;;;;;;0.60;0.60;;;32.10;78.70;;;;;;5076135;28;20405;-60
2023/09/27 08:49:14;;;;;;;0.50;0.50;;;32.10;78.40;;;;;;5076256;28;20393;-60
2023/09/27 08:51:42;;;;;;;0.60;0.60;;;32.30;77.80;;;;;;5076452;28;20411;-59
2023/09/27 08:54:08;;;;;;;0.50;0.50;;;32.20;77.70;;;;;;5075994;28;20425;-60
2023/09/27 08:56:34;;;;;;;1.00;0.60;;;32.20;77.30;;;;;;5076378;28;20427;-60
2023/09/27 08:59:00;;;;;;;0.70;0.60;;;32.30;77.00;;;;;;5076130;28;20172;-60
2023/09/27 09:01:26;;;;;;;0.60;0.60;;;32.40;76.90;;;;;;5076351;28;20557;-60
2023/09/27 09:03:52;;;;;;;0.60;0.60;;;32.70;76.50;;;;;;5057734;28;20460;-60
2023/09/27 09:06:19;;;;;;;0.67;0.67;;;33.10;75.20;;;;;;5076072;28;20258;-60
2023/09/27 09:08:46;;;;;;;1.37;1.37;;;33.30;74.00;;;;;;5075743;28;20419;-60
2023/09/27 09:11:16;;;;;;;0.50;0.50;;;33.40;73.80;;;;;;5076035;28;20423;-60
2023/09/27 09:13:59;;;;;;;1.10;1.10;;;33.50;72.90;;;;;;5075592;28;20561;-60
2023/09/27 09:16:25;;;;;;;0.47;0.47;;;33.60;73.20;;;;;;5075626;28;20426;-60
2023/09/27 09:18:54;;;;;;;0.67;0.67;;;33.60;72.50;;;;;;5076037;28;20435;-60
2023/09/27 09:21:20;;;;;;;0.50;0.50;;;33.90;71.20;;;;;;5075958;28;20447;-60
2023/09/27 09:23:49;;;;;;;0.50;0.50;;;34.20;71.40;;;;;;5075540;28;20765;-60
2023/09/27 09:26:29;;;;;;;0.90;0.90;;;34.60;69.70;;;;;;5075441;28;20423;-60
2023/09/27 09:28:56;;;;;;;0.60;0.60;;;34.50;68.20;;;;;;5075486;28;20419;-61
2023/09/27 09:31:23;;;;;;;0.63;0.63;;;34.30;68.50;;;;;;5076147;28;20413;-61
2023/09/27 09:34:02;;;;;;;0.50;0.50;;;33.60;70.30;;;;;;5075099;28;20734;-60
2023/09/27 09:36:28;;;;;;;0.50;0.50;;;33.50;71.20;;;;;;5075655;28;20427;-60
2023/09/27 09:39:01;;;;;;;0.50;0.50;;;33.50;71.50;;;;;;5075305;28;20411;-60
2023/09/27 09:41:49;;;;;;;1.40;1.30;;;33.70;71.20;;;;;;5075236;28;20457;-61
2023/09/27 09:44:25;;;;;;;0.50;0.50;;;34.20;70.10;;;;;;5074882;28;20404;-60
2023/09/27 09:46:57;;;;;;;0.57;0.57;;;34.80;68.30;;;;;;5075240;28;20430;-60
2023/09/27 09:49:23;;;;;;;0.63;0.63;;;35.10;67.80;;;;;;5074043;28;20938;-60
2023/09/27 09:51:50;;;;;;;0.50;0.50;;;35.10;67.50;;;;;;5074872;28;20411;-60
2023/09/27 09:54:46;;;;;;;0.60;0.60;;;34.80;67.50;;;;;;5074753;28;20483;-60
2023/09/27 09:57:13;;;;;;;0.50;0.43;;;34.30;68.30;;;;;;5074982;28;20430;-61
2023/09/27 10:03:03;;;;;;;0.73;0.73;;;34.50;68.20;;;;;;5075134;28;20414;-61
2023/09/27 10:05:36;;;;;;;0.50;0.50;;;34.30;68.60;;;;;;5074432;28;20788;-60
2023/09/27 10:08:02;;;;;;;0.60;0.60;;;34.40;67.90;;;;;;5074586;28;20431;-60
2023/09/27 10:10:28;;;;;;;0.80;0.80;;;34.60;67.50;;;;;;5074601;28;20415;-60
2023/09/27 10:12:56;;;;;;;0.47;0.47;;;34.20;67.80;;;;;;5074693;28;20415;-60
2023/09/27 10:15:22;;;;;;;0.50;0.50;;;33.80;68.90;;;;;;5074306;28;20230;-60
2023/09/27 10:17:48;;;;;;;0.40;0.40;;;33.30;70.20;;;;;;5074527;28;20440;-60
2023/09/27 10:20:18;;;;;;;0.67;0.47;;;33.00;70.30;;;;;;5077964;28;20438;-60
2023/09/27 10:22:45;;;;;;;0.50;0.50;;;32.90;71.90;;;;;;5077796;28;20180;-60
2023/09/27 10:25:32;;;;;;;1.47;0.70;;;32.80;72.30;;;;;;5074376;28;20419;-60
2023/09/27 10:28:07;;;;;;;0.50;0.50;;;32.60;71.00;;;;;;5074562;28;20924;-60
2023/09/27 10:30:44;;;;;;;0.53;0.53;;;32.50;72.00;;;;;;5074647;28;20434;-60
2023/09/27 10:33:15;;;;;;;0.50;0.50;;;32.30;71.40;;;;;;5074515;28;20397;-60
2023/09/27 10:36:02;;;;;;;1.03;0.93;;;32.20;72.90;;;;;;5073749;28;20491;-60
2023/09/27 10:38:43;;;;;;;0.40;0.30;;;32.20;72.60;;;;;;5074437;28;20399;-60
2023/09/27 10:41:29;;;;;;;0.40;0.40;;;32.20;72.70;;;;;;5074061;28;20454;-60
2023/09/27 10:43:55;;;;;;;0.90;0.90;;;32.20;71.80;;;;;;5073688;28;20407;-60
2023/09/27 10:46:20;;;;;;;0.63;0.63;;;31.90;72.00;;;;;;5074127;28;20450;-60
2023/09/27 10:48:57;;;;;;;0.60;0.60;;;31.40;71.90;;;;;;5074084;28;20635;-60
2023/09/27 10:51:25;;;;;;;0.60;0.50;;;31.30;72.40;;;;;;5056305;28;20188;-60
2023/09/27 10:53:52;;;;;;;0.30;0.30;;;31.30;73.10;;;;;;5073386;28;20406;-60
2023/09/27 10:56:17;;;;;;;0.43;0.43;;;31.30;73.40;;;;;;5073852;28;20754;-60
2023/09/27 10:58:49;;;;;;;0.43;0.43;;;31.30;72.60;;;;;;5073834;28;20378;-60
2023/09/27 11:01:20;;;;;;;0.50;0.50;;;31.20;74.10;;;;;;5073188;28;20212;-60
2023/09/27 11:03:45;;;;;;;0.40;0.40;;;31.10;73.30;;;;;;5073464;28;20419;-60
2023/09/27 11:06:16;;;;;;;0.30;0.20;;;30.70;73.60;;;;;;5073634;28;20889;-60
2023/09/27 11:08:42;;;;;;;0.37;0.37;;;30.00;73.40;;;;;;5055559;28;20547;-60
2023/09/27 11:11:10;;;;;;;0.30;0.30;;;29.00;76.60;;;;;;5073509;28;20377;-59
2023/09/27 11:13:44;;;;;;;0.93;0.53;;;28.60;74.70;;;;;;5073514;28;20386;-59
2023/09/27 11:16:13;;;;;;;0.33;0.30;;;28.00;77.20;;;;;;5073534;28;20460;-59
2023/09/27 11:18:51;;;;;;;0.30;0.30;;;27.60;79.80;;;;;;5073347;28;20386;-59
2023/09/27 11:21:17;;;;;;;0.30;0.30;;;27.30;79.50;;;;;;5073446;28;20433;-59
2023/09/27 11:23:57;;;;;;;0.33;0.33;;;27.00;80.30;;;;;;5073262;28;20480;-59
2023/09/27 11:26:28;;;;;;;0.50;0.50;;;26.60;81.60;;;;;;5073242;28;20454;-59
2023/09/27 11:29:04;;;;;;;0.37;0.37;;;26.50;82.30;;;;;;5055317;28;20384;-60
2023/09/27 11:31:35;;;;;;;0.40;0.40;;;26.30;83.00;;;;;;5073250;28;20947;-60
2023/09/27 11:34:14;;;;;;;0.30;0.20;;;26.20;82.40;;;;;;5073177;28;20408;-61
2023/09/27 11:36:48;;;;;;;0.30;0.30;;;26.20;80.90;;;;;;5073318;28;20452;-60
2023/09/27 11:39:15;;;;;;;0.30;0.20;;;26.00;81.10;;;;;;5073340;28;20560;-60
2023/09/27 11:41:41;;;;;;;0.30;0.30;;;26.00;82.60;;;;;;5072739;28;20446;-60
2023/09/27 11:44:21;;;;;;;0.60;0.53;;;25.90;84.40;;;;;;5072992;28;20382;-60
2023/09/27 11:46:49;;;;;;;0.30;0.30;;;25.90;84.50;;;;;;5073209;28;20423;-59
2023/09/27 11:49:16;;;;;;;0.63;0.40;;;25.90;84.80;;;;;;5073533;28;20446;-60
2023/09/27 11:51:42;;;;;;;0.30;0.20;;;25.80;82.20;;;;;;5073269;28;20425;-60
2023/09/27 11:54:08;;;;;;;0.70;0.50;;;25.70;83.90;;;;;;5072779;28;20390;-60
2023/09/27 11:56:36;;;;;;;0.50;0.40;;;25.70;83.70;;;;;;5073136;28;20450;-60
2023/09/27 11:59:03;;;;;;;0.37;0.33;;;25.60;82.40;;;;;;5073207;28;20401;-60
2023/09/27 12:01:28;;;;;;;0.30;0.30;;;25.50;82.50;;;;;;5073108;28;20846;-60
2023/09/27 12:03:54;;;;;;;0.30;0.30;;;25.40;83.40;;;;;;5072747;28;20492;-60
2023/09/27 12:06:20;;;;;;;0.80;0.80;;;25.30;84.70;;;;;;5072983;28;20707;-60
2023/09/27 12:08:45;;;;;;;0.30;0.20;;;25.40;85.10;;;;;;5072706;28;20181;-60
2023/09/27 12:11:11;;;;;;;0.30;0.30;;;25.40;84.80;;;;;;5072941;28;20176;-60
2023/09/27 12:13:37;;;;;;;0.40;0.37;;;25.50;82.60;;;;;;5075354;28;20168;-60
2023/09/27 12:16:03;;;;;;;0.30;0.20;;;25.40;81.50;;;;;;5076789;28;20215;-60
2023/09/27 12:18:29;;;;;;;0.30;0.20;;;25.40;81.30;;;;;;5076782;28;20414;-60
2023/09/27 12:20:55;;;;;;;0.37;0.37;;;25.40;81.10;;;;;;5076756;28;20203;-61
2023/09/27 12:23:21;;;;;;;0.50;0.50;;;25.30;81.00;;;;;;5076352;28;20888;-60
2023/09/27 12:25:47;;;;;;;0.40;0.40;;;25.20;81.40;;;;;;5076210;28;20393;-60
2023/09/27 12:28:14;;;;;;;0.50;0.50;;;25.20;82.20;;;;;;5076846;28;20453;-60
2023/09/27 12:30:43;;;;;;;0.50;0.50;;;25.20;82.40;;;;;;5076748;28;20407;-60
2023/09/27 12:33:09;;;;;;;0.30;0.20;;;25.20;82.30;;;;;;5076697;28;20382;-60
2023/09/27 12:35:34;;;;;;;0.30;0.30;;;25.20;83.90;;;;;;5076064;28;20461;-60
2023/09/27 12:38:06;;;;;;;0.50;0.50;;;25.30;83.00;;;;;;5076626;28;20177;-60
2023/09/27 12:40:35;;;;;;;0.30;0.20;;;25.20;82.50;;;;;;5076203;28;20234;-60
2023/09/27 12:43:04;;;;;;;0.30;0.20;;;25.30;82.70;;;;;;5076101;28;20413;-60
2023/09/27 12:45:31;;;;;;;0.67;0.67;;;25.30;82.90;;;;;;5075410;28;20947;-60
2023/09/27 12:47:57;;;;;;;0.30;0.20;;;25.30;84.00;;;;;;5075915;28;20709;-60
2023/09/27 12:50:26;;;;;;;0.57;0.57;;;25.30;83.20;;;;;;5057713;28;20421;-60
2023/09/27 12:52:56;;;;;;;0.30;0.30;;;25.30;82.60;;;;;;5075796;28;20401;-60
2023/09/27 12:55:23;;;;;;;0.30;0.30;;;25.30;82.30;;;;;;5075335;28;20492;-60
2023/09/27 12:57:51;;;;;;;0.30;0.20;;;25.30;82.60;;;;;;5075638;28;20411;-61
2023/09/27 13:00:17;;;;;;;0.30;0.20;;;25.30;83.30;;;;;;5075327;28;20496;-62
2023/09/27 13:02:43;;;;;;;0.30;0.30;;;25.30;83.60;;;;;;5075507;28;20378;-63
2023/09/27 13:05:09;;;;;;;0.30;0.30;;;25.30;84.10;;;;;;5074833;28;20403;-62
2023/09/27 13:07:35;;;;;;;0.30;0.30;;;25.30;83.70;;;;;;5075548;28;20402;-62
2023/09/27 13:10:01;;;;;;;0.40;0.30;;;25.30;84.20;;;;;;5075175;28;20633;-61
2023/09/27 13:12:27;;;;;;;0.40;0.40;;;25.40;83.50;;;;;;5075288;28;20627;-62
2023/09/27 13:14:54;;;;;;;0.60;0.30;;;25.40;83.10;;;;;;5073217;28;20399;-62
2023/09/27 13:17:22;;;;;;;0.30;0.30;;;25.50;83.90;;;;;;5055169;28;20502;-62
2023/09/27 13:19:47;;;;;;;0.30;0.30;;;25.50;84.00;;;;;;5055322;28;20401;-62
2023/09/27 13:22:13;;;;;;;0.30;0.30;;;25.60;83.90;;;;;;5055257;28;20958;-63
2023/09/27 13:24:38;;;;;;;0.30;0.20;;;25.60;82.60;;;;;;5054546;28;20208;-63
2023/09/27 13:27:05;;;;;;;0.33;0.33;;;25.60;82.00;;;;;;5055063;28;20241;-63
2023/09/27 13:29:31;;;;;;;0.30;0.30;;;25.60;81.80;;;;;;5054929;28;20541;-63
2023/09/27 13:31:57;;;;;;;0.50;0.40;;;25.60;82.20;;;;;;5055745;28;20395;-63
2023/09/27 13:34:23;;;;;;;0.40;0.40;;;25.60;82.70;;;;;;5054466;28;20189;-62
2023/09/27 13:36:49;;;;;;;0.30;0.20;;;25.50;82.90;;;;;;5055067;28;20432;-62
2023/09/27 13:39:16;;;;;;;0.30;0.30;;;25.50;83.20;;;;;;5054816;28;20651;-62
2023/09/27 13:41:46;;;;;;;0.30;0.30;;;25.40;83.60;;;;;;5070654;28;20461;-62
2023/09/27 13:44:14;;;;;;;0.30;0.20;;;25.40;83.90;;;;;;5074460;28;20499;-63
2023/09/27 13:46:40;;;;;;;0.67;0.47;;;25.30;84.10;;;;;;5074640;28;20791;-63
2023/09/27 13:49:06;;;;;;;0.30;0.30;;;25.30;84.10;;;;;;5074615;28;20393;-63
2023/09/27 13:51:34;;;;;;;0.53;0.53;;;25.30;83.70;;;;;;5060023;28;20622;-62
2023/09/27 13:54:01;;;;;;;0.30;0.20;;;25.30;83.10;;;;;;5054191;28;20177;-62
2023/09/27 13:56:26;;;;;;;0.30;0.30;;;25.30;82.90;;;;;;5054370;28;20932;-62
2023/09/27 13:58:52;;;;;;;0.60;0.50;;;25.30;83.70;;;;;;5036531;28;20408;-62
2023/09/27 14:01:18;;;;;;;0.30;0.20;;;25.40;82.70;;;;;;5066298;28;20189;-62
2023/09/27 14:03:43;;;;;;;0.30;0.30;;;25.50;82.90;;;;;;5057770;28;20169;-62
2023/09/27 14:06:09;;;;;;;0.30;0.20;;;25.50;83.70;;;;;;5063296;28;20197;-62
2023/09/27 14:08:34;;;;;;;0.50;0.50;;;25.50;83.80;;;;;;5074268;28;20662;-62
2023/09/27 14:11:00;;;;;;;0.30;0.30;;;25.60;83.70;;;;;;5074352;28;20536;-63
2023/09/27 14:13:26;;;;;;;0.60;0.50;;;25.60;83.20;;;;;;5074471;28;20165;-63
2023/09/27 14:15:52;;;;;;;0.43;0.43;;;25.60;83.00;;;;;;5067869;28;20189;-63
2023/09/27 14:18:18;;;;;;;0.30;0.20;;;25.50;82.90;;;;;;5054507;28;20431;-62
2023/09/27 14:20:44;;;;;;;0.30;0.20;;;25.50;83.10;;;;;;5053958;28;20836;-62
2023/09/27 14:23:09;;;;;;;0.37;0.30;;;25.50;83.80;;;;;;5054257;28;20220;-62
2023/09/27 14:25:35;;;;;;;0.40;0.40;;;25.50;83.80;;;;;;5070145;28;20446;-63
2023/09/27 14:28:00;;;;;;;0.30;0.30;;;25.50;84.00;;;;;;5073816;28;20173;-63
2023/09/27 14:30:26;;;;;;;0.50;0.50;;;25.60;83.80;;;;;;5073787;28;20169;-63
2023/09/27 14:32:51;;;;;;;0.30;0.20;;;25.60;83.60;;;;;;5074175;28;20173;-63
2023/09/27 14:35:17;;;;;;;0.30;0.20;;;25.60;83.90;;;;;;5058725;28;20185;-63
2023/09/27 14:37:43;;;;;;;0.30;0.20;;;25.60;84.00;;;;;;5054095;28;20170;-63
2023/09/27 14:40:09;;;;;;;0.30;0.20;;;25.70;84.30;;;;;;5053942;28;20200;-62
2023/09/27 14:42:41;;;;;;;0.30;0.30;;;25.70;84.50;;;;;;5053784;28;20180;-62
2023/09/27 14:45:08;;;;;;;0.50;0.50;;;25.80;84.10;;;;;;5064923;28;20480;-63
2023/09/27 14:47:34;;;;;;;0.30;0.30;;;25.80;84.00;;;;;;5073983;28;20381;-62
2023/09/27 14:50:04;;;;;;;0.30;0.30;;;25.80;83.60;;;;;;5074065;28;20531;-62
2023/09/27 14:52:30;;;;;;;0.30;0.20;;;25.90;84.30;;;;;;5073695;28;20393;-63
2023/09/27 14:54:56;;;;;;;0.40;0.40;;;25.90;83.60;;;;;;5044979;28;20406;-63
2023/09/27 14:57:22;;;;;;;0.30;0.30;;;25.90;83.80;;;;;;5053689;28;20519;-62
2023/09/27 14:59:50;;;;;;;0.30;0.30;;;25.90;84.00;;;;;;5053469;28;20416;-63
2023/09/27 15:02:15;;;;;;;0.30;0.30;;;25.90;85.20;;;;;;5053591;28;20450;-62
2023/09/27 15:04:41;;;;;;;0.50;0.50;;;25.80;84.60;;;;;;5061193;28;20423;-62
2023/09/27 15:07:06;;;;;;;0.30;0.20;;;25.70;85.00;;;;;;5073400;28;20215;-62
2023/09/27 15:09:32;;;;;;;0.30;0.20;;;25.80;85.50;;;;;;5073620;28;20176;-64
2023/09/27 15:11:57;;;;;;;0.30;0.30;;;25.70;85.40;;;;;;5073556;28;20172;-63
2023/09/27 15:14:23;;;;;;;0.40;0.40;;;25.70;85.70;;;;;;5053134;28;20181;-63
2023/09/27 15:16:49;;;;;;;1.10;0.40;;;25.60;85.50;;;;;;5053327;28;20296;-63
2023/09/27 15:19:14;;;;;;;0.30;0.30;;;25.60;84.50;;;;;;5053487;28;20227;-63
2023/09/27 15:21:40;;;;;;;0.47;0.47;;;25.60;83.70;;;;;;5053336;28;20212;-63
2023/09/27 15:24:06;;;;;;;0.30;0.20;;;25.60;82.90;;;;;;5069505;28;20238;-62
2023/09/27 15:26:32;;;;;;;0.30;0.30;;;25.40;82.50;;;;;;5073226;28;20241;-62
2023/09/27 15:29:00;;;;;;;0.30;0.20;;;25.40;80.70;;;;;;5073204;28;20638;-63
2023/09/27 15:31:26;;;;;;;0.30;0.23;;;25.30;79.60;;;;;;5073490;28;20524;-62
2023/09/27 15:33:52;;;;;;;0.30;0.30;;;25.30;81.30;;;;;;5058178;28;20937;-62
2023/09/27 15:36:17;;;;;;;0.30;0.30;;;25.30;80.80;;;;;;5053229;28;20424;-62
2023/09/27 15:38:45;;;;;;;0.30;0.30;;;25.20;81.60;;;;;;5052922;28;20629;-62
2023/09/27 15:41:17;;;;;;;0.37;0.37;;;25.20;82.30;;;;;;5052584;28;20683;-63
2023/09/27 15:43:44;;;;;;;0.30;0.30;;;25.10;82.80;;;;;;5065385;28;20419;-62
2023/09/27 15:46:11;;;;;;;0.30;0.23;;;25.10;83.10;;;;;;5072818;28;20398;-63
2023/09/27 15:48:37;;;;;;;0.30;0.30;;;25.10;83.30;;;;;;5072732;28;20418;-63
2023/09/27 15:51:08;;;;;;;0.40;0.40;;;25.00;83.50;;;;;;5071433;28;20412;-63
2023/09/27 15:53:35;;;;;;;0.30;0.20;;;25.00;83.20;;;;;;5060712;28;20178;-63
2023/09/27 15:56:05;;;;;;;0.40;0.37;;;24.90;81.50;;;;;;5052356;28;20439;-63
2023/09/27 15:58:32;;;;;;;0.40;0.40;;;24.90;81.30;;;;;;5052796;28;20408;-63
2023/09/27 16:01:03;;;;;;;0.30;0.30;;;24.80;81.50;;;;;;5052688;28;20420;-63
2023/09/27 16:03:29;;;;;;;0.30;0.20;;;24.80;81.50;;;;;;5063200;28;20423;-62
2023/09/27 16:05:56;;;;;;;1.33;0.60;;;24.80;81.30;;;;;;5072279;28;20766;-62
2023/09/27 16:08:23;;;;;;;0.30;0.30;;;24.80;81.60;;;;;;5072574;28;20823;-64
2023/09/27 16:10:50;;;;;;;0.30;0.30;;;24.60;81.20;;;;;;5072877;28;20384;-64
2023/09/27 16:13:16;;;;;;;0.30;0.30;;;24.60;80.80;;;;;;5064922;28;20427;-63
2023/09/27 16:15:44;;;;;;;0.30;0.20;;;24.60;81.30;;;;;;5052385;28;20941;-61
2023/09/27 16:18:10;;;;;;;0.63;0.63;;;24.40;80.90;;;;;;5052936;28;20758;-60
2023/09/27 16:20:36;;;;;;;0.63;0.50;;;24.40;81.20;;;;;;5052492;28;20446;-60
2023/09/27 16:23:01;;;;;;;0.40;0.30;;;24.30;81.50;;;;;;5057705;28;20425;-61
2023/09/27 16:25:27;;;;;;;0.30;0.20;;;24.20;81.90;;;;;;5072088;28;20185;-60
2023/09/27 16:27:52;;;;;;;0.60;0.53;;;24.10;82.30;;;;;;5072420;28;20165;-61
2023/09/27 16:30:18;;;;;;;0.40;0.40;;;24.00;82.90;;;;;;5072260;28;20168;-61
2023/09/27 16:32:44;;;;;;;0.60;0.57;;;23.90;83.00;;;;;;5053380;28;20174;-60
2023/09/27 16:35:10;;;;;;;0.40;0.40;;;23.80;83.40;;;;;;5052106;28;20171;-60
2023/09/27 16:37:36;;;;;;;0.30;0.20;;;23.70;83.90;;;;;;5052608;28;20188;-61
2023/09/27 16:40:03;;;;;;;0.30;0.20;;;23.60;84.30;;;;;;5052397;28;20498;-62
2023/09/27 16:42:28;;;;;;;0.30;0.20;;;23.50;84.80;;;;;;5067294;28;20189;-63
2023/09/27 16:44:54;;;;;;;0.30;0.20;;;23.40;85.00;;;;;;5071748;28;20398;-63
2023/09/27 16:47:21;;;;;;;0.30;0.30;;;23.30;85.10;;;;;;5072060;28;20597;-61
2023/09/27 16:49:47;;;;;;;0.30;0.30;;;23.30;85.40;;;;;;5072424;28;20732;-61
2023/09/27 16:52:14;;;;;;;0.30;0.30;;;23.20;86.30;;;;;;5059822;28;20398;-60
2023/09/27 16:54:39;;;;;;;0.30;0.30;;;23.10;87.40;;;;;;5059186;28;20178;-60
2023/09/27 16:57:06;;;;;;;0.40;0.40;;;23.10;89.10;;;;;;5071692;28;20541;-61